sensor_id;sensor_type;location;lat;lon;timestamp;P1;durP1;ratioP1;P2;durP2;ratioP2
47778;SDS011;33538;48.432;11.350;2024-03-07T00:00:41;14.27;;;6.45;;
47778;SDS011;33538;48.432;11.350;2024-03-07T00:03:08;18.35;;;7.70;;
47778;SDS011;33538;48.432;11.350;2024-03-07T00:05:34;16.98;;;7.13;;
47778;SDS011;33538;48.432;11.350;2024-03-07T00:08:01;16.70;;;7.18;;
47778;SDS011;33538;48.432;11.350;2024-03-07T00:10:28;16.83;;;8.07;;
47778;SDS011;33538;48.432;11.350;2024-03-07T00:12:55;19.30;;;8.07;;
47778;SDS011;33538;48.432;11.350;2024-03-07T00:15:23;20.23;;;8.55;;
47778;SDS011;33538;48.432;11.350;2024-03-07T00:17:50;18.52;;;7.55;;
47778;SDS011;33538;48.432;11.350;2024-03-07T00:20:17;20.80;;;7.00;;
47778;SDS011;33538;48.432;11.350;2024-03-07T00:22:44;18.85;;;7.35;;
47778;SDS011;33538;48.432;11.350;2024-03-07T00:25:11;24.40;;;9.57;;
47778;SDS011;33538;48.432;11.350;2024-03-07T00:27:37;18.45;;;8.25;;
47778;SDS011;33538;48.432;11.350;2024-03-07T00:30:05;19.83;;;8.32;;
47778;SDS011;33538;48.432;11.350;2024-03-07T00:32:34;18.17;;;7.82;;
47778;SDS011;33538;48.432;11.350;2024-03-07T00:35:01;23.50;;;8.85;;
47778;SDS011;33538;48.432;11.350;2024-03-07T00:37:28;19.13;;;8.32;;
47778;SDS011;33538;48.432;11.350;2024-03-07T00:39:55;20.67;;;8.73;;
47778;SDS011;33538;48.432;11.350;2024-03-07T00:42:22;18.33;;;8.43;;
47778;SDS011;33538;48.432;11.350;2024-03-07T00:44:49;22.90;;;8.32;;
47778;SDS011;33538;48.432;11.350;2024-03-07T00:47:16;18.30;;;7.93;;
47778;SDS011;33538;48.432;11.350;2024-03-07T00:49:44;22.83;;;8.90;;
47778;SDS011;33538;48.432;11.350;2024-03-07T00:52:11;20.48;;;9.02;;
47778;SDS011;33538;48.432;11.350;2024-03-07T00:54:38;19.77;;;8.43;;
47778;SDS011;33538;48.432;11.350;2024-03-07T00:57:05;27.08;;;9.52;;
47778;SDS011;33538;48.432;11.350;2024-03-07T00:59:32;24.33;;;9.77;;
47778;SDS011;33538;48.432;11.350;2024-03-07T01:01:59;22.60;;;8.65;;
47778;SDS011;33538;48.432;11.350;2024-03-07T01:04:26;24.10;;;10.05;;
47778;SDS011;33538;48.432;11.350;2024-03-07T01:06:54;19.45;;;8.68;;
47778;SDS011;33538;48.432;11.350;2024-03-07T01:09:21;22.70;;;9.35;;
47778;SDS011;33538;48.432;11.350;2024-03-07T01:11:48;19.83;;;8.98;;
47778;SDS011;33538;48.432;11.350;2024-03-07T01:14:15;22.92;;;9.68;;
47778;SDS011;33538;48.432;11.350;2024-03-07T01:16:42;25.83;;;9.70;;
47778;SDS011;33538;48.432;11.350;2024-03-07T01:19:09;30.35;;;11.27;;
47778;SDS011;33538;48.432;11.350;2024-03-07T01:21:36;25.98;;;10.32;;
47778;SDS011;33538;48.432;11.350;2024-03-07T01:24:06;26.92;;;10.95;;
47778;SDS011;33538;48.432;11.350;2024-03-07T01:26:33;22.05;;;9.45;;
47778;SDS011;33538;48.432;11.350;2024-03-07T01:29:00;23.25;;;9.27;;
47778;SDS011;33538;48.432;11.350;2024-03-07T01:31:27;21.58;;;8.82;;
47778;SDS011;33538;48.432;11.350;2024-03-07T01:33:54;21.10;;;9.48;;
47778;SDS011;33538;48.432;11.350;2024-03-07T01:36:21;23.55;;;10.43;;
47778;SDS011;33538;48.432;11.350;2024-03-07T01:38:48;25.80;;;10.02;;
47778;SDS011;33538;48.432;11.350;2024-03-07T01:41:16;26.00;;;10.93;;
47778;SDS011;33538;48.432;11.350;2024-03-07T01:43:43;28.13;;;11.65;;
47778;SDS011;33538;48.432;11.350;2024-03-07T01:46:10;28.90;;;12.30;;
47778;SDS011;33538;48.432;11.350;2024-03-07T01:48:38;31.02;;;11.98;;
47778;SDS011;33538;48.432;11.350;2024-03-07T01:51:05;29.75;;;12.77;;
47778;SDS011;33538;48.432;11.350;2024-03-07T01:53:32;30.95;;;11.73;;
47778;SDS011;33538;48.432;11.350;2024-03-07T01:56:00;24.95;;;11.15;;
47778;SDS011;33538;48.432;11.350;2024-03-07T01:58:30;32.92;;;12.70;;
47778;SDS011;33538;48.432;11.350;2024-03-07T02:00:57;27.02;;;11.98;;
47778;SDS011;33538;48.432;11.350;2024-03-07T02:03:24;29.63;;;12.43;;
47778;SDS011;33538;48.432;11.350;2024-03-07T02:05:51;31.02;;;12.13;;
47778;SDS011;33538;48.432;11.350;2024-03-07T02:08:18;27.05;;;12.05;;
47778;SDS011;33538;48.432;11.350;2024-03-07T02:10:46;26.70;;;11.65;;
47778;SDS011;33538;48.432;11.350;2024-03-07T02:13:13;28.33;;;12.63;;
47778;SDS011;33538;48.432;11.350;2024-03-07T02:15:41;30.80;;;12.93;;
47778;SDS011;33538;48.432;11.350;2024-03-07T02:18:08;30.17;;;12.73;;
47778;SDS011;33538;48.432;11.350;2024-03-07T02:20:35;31.58;;;12.95;;
47778;SDS011;33538;48.432;11.350;2024-03-07T02:23:03;29.67;;;12.25;;
47778;SDS011;33538;48.432;11.350;2024-03-07T02:25:30;25.02;;;11.20;;
47778;SDS011;33538;48.432;11.350;2024-03-07T02:27:57;30.08;;;12.38;;
47778;SDS011;33538;48.432;11.350;2024-03-07T02:30:24;31.42;;;12.93;;
47778;SDS011;33538;48.432;11.350;2024-03-07T02:32:51;27.80;;;10.93;;
47778;SDS011;33538;48.432;11.350;2024-03-07T02:35:18;27.60;;;10.70;;
47778;SDS011;33538;48.432;11.350;2024-03-07T02:37:45;22.83;;;11.10;;
47778;SDS011;33538;48.432;11.350;2024-03-07T02:40:13;32.65;;;12.13;;
47778;SDS011;33538;48.432;11.350;2024-03-07T02:42:40;27.25;;;11.48;;
47778;SDS011;33538;48.432;11.350;2024-03-07T02:45:07;26.45;;;11.35;;
47778;SDS011;33538;48.432;11.350;2024-03-07T02:47:34;32.90;;;12.02;;
47778;SDS011;33538;48.432;11.350;2024-03-07T02:50:01;25.23;;;11.15;;
47778;SDS011;33538;48.432;11.350;2024-03-07T02:52:28;26.63;;;12.13;;
47778;SDS011;33538;48.432;11.350;2024-03-07T02:54:55;26.05;;;11.27;;
47778;SDS011;33538;48.432;11.350;2024-03-07T02:57:23;27.10;;;10.65;;
47778;SDS011;33538;48.432;11.350;2024-03-07T02:59:50;26.63;;;11.93;;
47778;SDS011;33538;48.432;11.350;2024-03-07T03:02:17;26.10;;;11.45;;
47778;SDS011;33538;48.432;11.350;2024-03-07T03:04:44;27.35;;;11.20;;
47778;SDS011;33538;48.432;11.350;2024-03-07T03:07:11;34.78;;;13.55;;
47778;SDS011;33538;48.432;11.350;2024-03-07T03:09:37;30.77;;;12.35;;
47778;SDS011;33538;48.432;11.350;2024-03-07T03:12:04;33.17;;;13.75;;
47778;SDS011;33538;48.432;11.350;2024-03-07T03:14:33;29.85;;;12.23;;
47778;SDS011;33538;48.432;11.350;2024-03-07T03:16:59;31.77;;;13.07;;
47778;SDS011;33538;48.432;11.350;2024-03-07T03:19:26;32.83;;;12.93;;
47778;SDS011;33538;48.432;11.350;2024-03-07T03:21:53;30.42;;;13.18;;
47778;SDS011;33538;48.432;11.350;2024-03-07T03:24:20;31.25;;;13.10;;
47778;SDS011;33538;48.432;11.350;2024-03-07T03:26:46;28.75;;;12.25;;
47778;SDS011;33538;48.432;11.350;2024-03-07T03:29:13;33.03;;;12.07;;
47778;SDS011;33538;48.432;11.350;2024-03-07T03:31:41;33.45;;;13.60;;
47778;SDS011;33538;48.432;11.350;2024-03-07T03:34:08;28.48;;;12.25;;
47778;SDS011;33538;48.432;11.350;2024-03-07T03:36:35;33.13;;;12.93;;
47778;SDS011;33538;48.432;11.350;2024-03-07T03:39:02;34.67;;;13.88;;
47778;SDS011;33538;48.432;11.350;2024-03-07T03:41:29;32.50;;;12.88;;
47778;SDS011;33538;48.432;11.350;2024-03-07T03:43:55;32.47;;;12.77;;
47778;SDS011;33538;48.432;11.350;2024-03-07T03:46:22;29.80;;;12.55;;
47778;SDS011;33538;48.432;11.350;2024-03-07T03:48:50;27.02;;;11.82;;
47778;SDS011;33538;48.432;11.350;2024-03-07T03:51:17;27.67;;;12.82;;
47778;SDS011;33538;48.432;11.350;2024-03-07T03:53:44;32.00;;;13.00;;
47778;SDS011;33538;48.432;11.350;2024-03-07T03:56:11;32.13;;;14.10;;
47778;SDS011;33538;48.432;11.350;2024-03-07T03:58:39;34.78;;;13.57;;
47778;SDS011;33538;48.432;11.350;2024-03-07T04:01:06;40.90;;;14.13;;
47778;SDS011;33538;48.432;11.350;2024-03-07T04:03:33;31.10;;;13.35;;
47778;SDS011;33538;48.432;11.350;2024-03-07T04:06:01;34.85;;;14.20;;
47778;SDS011;33538;48.432;11.350;2024-03-07T04:08:28;37.33;;;12.73;;
47778;SDS011;33538;48.432;11.350;2024-03-07T04:10:55;32.45;;;13.63;;
47778;SDS011;33538;48.432;11.350;2024-03-07T04:13:21;36.78;;;13.63;;
47778;SDS011;33538;48.432;11.350;2024-03-07T04:15:48;29.00;;;12.35;;
47778;SDS011;33538;48.432;11.350;2024-03-07T04:18:15;38.67;;;14.48;;
47778;SDS011;33538;48.432;11.350;2024-03-07T04:20:42;39.38;;;14.18;;
47778;SDS011;33538;48.432;11.350;2024-03-07T04:23:10;33.03;;;13.60;;
47778;SDS011;33538;48.432;11.350;2024-03-07T04:25:38;32.45;;;14.45;;
47778;SDS011;33538;48.432;11.350;2024-03-07T04:28:05;38.30;;;13.45;;
47778;SDS011;33538;48.432;11.350;2024-03-07T04:30:32;31.33;;;12.82;;
47778;SDS011;33538;48.432;11.350;2024-03-07T04:32:58;31.85;;;12.27;;
47778;SDS011;33538;48.432;11.350;2024-03-07T04:35:25;31.38;;;13.55;;
47778;SDS011;33538;48.432;11.350;2024-03-07T04:37:53;38.08;;;13.77;;
47778;SDS011;33538;48.432;11.350;2024-03-07T04:40:21;38.72;;;15.07;;
47778;SDS011;33538;48.432;11.350;2024-03-07T04:42:48;41.40;;;14.18;;
47778;SDS011;33538;48.432;11.350;2024-03-07T04:45:16;35.75;;;13.38;;
47778;SDS011;33538;48.432;11.350;2024-03-07T04:47:44;27.98;;;11.05;;
47778;SDS011;33538;48.432;11.350;2024-03-07T04:50:11;33.30;;;12.77;;
47778;SDS011;33538;48.432;11.350;2024-03-07T04:52:38;33.95;;;13.07;;
47778;SDS011;33538;48.432;11.350;2024-03-07T04:55:06;35.67;;;12.18;;
47778;SDS011;33538;48.432;11.350;2024-03-07T04:57:35;36.90;;;13.23;;
47778;SDS011;33538;48.432;11.350;2024-03-07T05:00:02;35.95;;;13.75;;
47778;SDS011;33538;48.432;11.350;2024-03-07T05:02:29;43.08;;;15.23;;
47778;SDS011;33538;48.432;11.350;2024-03-07T05:04:56;38.08;;;15.52;;
47778;SDS011;33538;48.432;11.350;2024-03-07T05:07:23;39.47;;;16.00;;
47778;SDS011;33538;48.432;11.350;2024-03-07T05:09:50;35.15;;;15.38;;
47778;SDS011;33538;48.432;11.350;2024-03-07T05:12:16;47.72;;;15.60;;
47778;SDS011;33538;48.432;11.350;2024-03-07T05:14:45;34.60;;;14.50;;
47778;SDS011;33538;48.432;11.350;2024-03-07T05:17:12;37.63;;;14.65;;
47778;SDS011;33538;48.432;11.350;2024-03-07T05:19:38;39.55;;;14.82;;
47778;SDS011;33538;48.432;11.350;2024-03-07T05:22:05;38.83;;;16.02;;
47778;SDS011;33538;48.432;11.350;2024-03-07T05:24:32;38.78;;;14.55;;
47778;SDS011;33538;48.432;11.350;2024-03-07T05:26:59;42.88;;;16.83;;
47778;SDS011;33538;48.432;11.350;2024-03-07T05:29:26;47.22;;;16.17;;
47778;SDS011;33538;48.432;11.350;2024-03-07T05:31:54;43.22;;;15.80;;
47778;SDS011;33538;48.432;11.350;2024-03-07T05:34:21;39.42;;;16.67;;
47778;SDS011;33538;48.432;11.350;2024-03-07T05:36:48;39.60;;;15.93;;
47778;SDS011;33538;48.432;11.350;2024-03-07T05:39:15;37.03;;;13.65;;
47778;SDS011;33538;48.432;11.350;2024-03-07T05:41:43;41.63;;;16.30;;
47778;SDS011;33538;48.432;11.350;2024-03-07T05:44:11;41.75;;;16.10;;
47778;SDS011;33538;48.432;11.350;2024-03-07T05:46:38;37.67;;;15.27;;
47778;SDS011;33538;48.432;11.350;2024-03-07T05:49:07;35.33;;;13.85;;
47778;SDS011;33538;48.432;11.350;2024-03-07T05:51:33;29.60;;;13.23;;
47778;SDS011;33538;48.432;11.350;2024-03-07T05:54:00;40.58;;;15.30;;
47778;SDS011;33538;48.432;11.350;2024-03-07T05:56:27;34.95;;;14.23;;
47778;SDS011;33538;48.432;11.350;2024-03-07T05:58:54;31.92;;;13.05;;
47778;SDS011;33538;48.432;11.350;2024-03-07T06:01:21;34.17;;;14.65;;
47778;SDS011;33538;48.432;11.350;2024-03-07T06:03:47;37.63;;;14.23;;
47778;SDS011;33538;48.432;11.350;2024-03-07T06:06:16;37.05;;;14.90;;
47778;SDS011;33538;48.432;11.350;2024-03-07T06:08:46;35.65;;;14.77;;
47778;SDS011;33538;48.432;11.350;2024-03-07T06:11:13;42.45;;;15.02;;
47778;SDS011;33538;48.432;11.350;2024-03-07T06:13:40;34.65;;;15.27;;
47778;SDS011;33538;48.432;11.350;2024-03-07T06:16:06;38.40;;;14.93;;
47778;SDS011;33538;48.432;11.350;2024-03-07T06:18:34;37.45;;;14.57;;
47778;SDS011;33538;48.432;11.350;2024-03-07T06:21:01;31.38;;;14.88;;
47778;SDS011;33538;48.432;11.350;2024-03-07T06:23:29;36.78;;;15.82;;
47778;SDS011;33538;48.432;11.350;2024-03-07T06:25:56;38.10;;;15.68;;
47778;SDS011;33538;48.432;11.350;2024-03-07T06:28:22;36.60;;;15.80;;
47778;SDS011;33538;48.432;11.350;2024-03-07T06:30:49;37.55;;;14.75;;
47778;SDS011;33538;48.432;11.350;2024-03-07T06:33:16;45.17;;;13.63;;
47778;SDS011;33538;48.432;11.350;2024-03-07T06:35:44;37.17;;;14.90;;
47778;SDS011;33538;48.432;11.350;2024-03-07T06:38:11;42.30;;;16.27;;
47778;SDS011;33538;48.432;11.350;2024-03-07T06:40:40;41.10;;;14.35;;
47778;SDS011;33538;48.432;11.350;2024-03-07T06:43:07;39.55;;;14.05;;
47778;SDS011;33538;48.432;11.350;2024-03-07T06:45:34;41.67;;;15.13;;
47778;SDS011;33538;48.432;11.350;2024-03-07T06:48:02;42.08;;;15.60;;
47778;SDS011;33538;48.432;11.350;2024-03-07T06:50:30;41.35;;;14.68;;
47778;SDS011;33538;48.432;11.350;2024-03-07T06:53:04;47.05;;;15.88;;
47778;SDS011;33538;48.432;11.350;2024-03-07T06:55:31;36.38;;;13.70;;
47778;SDS011;33538;48.432;11.350;2024-03-07T06:57:59;38.80;;;14.88;;
47778;SDS011;33538;48.432;11.350;2024-03-07T07:00:26;36.13;;;15.38;;
47778;SDS011;33538;48.432;11.350;2024-03-07T07:02:53;43.70;;;16.33;;
47778;SDS011;33538;48.432;11.350;2024-03-07T07:05:20;43.40;;;15.80;;
47778;SDS011;33538;48.432;11.350;2024-03-07T07:07:47;42.28;;;15.85;;
47778;SDS011;33538;48.432;11.350;2024-03-07T07:10:14;40.33;;;16.25;;
47778;SDS011;33538;48.432;11.350;2024-03-07T07:12:42;44.20;;;17.38;;
47778;SDS011;33538;48.432;11.350;2024-03-07T07:15:10;42.20;;;16.90;;
47778;SDS011;33538;48.432;11.350;2024-03-07T07:17:37;49.25;;;16.70;;
47778;SDS011;33538;48.432;11.350;2024-03-07T07:20:04;38.85;;;15.80;;
47778;SDS011;33538;48.432;11.350;2024-03-07T07:22:32;36.60;;;14.23;;
47778;SDS011;33538;48.432;11.350;2024-03-07T07:25:01;43.58;;;16.10;;
47778;SDS011;33538;48.432;11.350;2024-03-07T07:27:28;45.50;;;15.48;;
47778;SDS011;33538;48.432;11.350;2024-03-07T07:29:54;39.75;;;16.05;;
47778;SDS011;33538;48.432;11.350;2024-03-07T07:32:23;39.55;;;15.48;;
47778;SDS011;33538;48.432;11.350;2024-03-07T07:34:49;42.75;;;16.15;;
47778;SDS011;33538;48.432;11.350;2024-03-07T07:37:16;41.78;;;16.58;;
47778;SDS011;33538;48.432;11.350;2024-03-07T07:39:43;40.97;;;16.10;;
47778;SDS011;33538;48.432;11.350;2024-03-07T07:42:10;40.53;;;15.55;;
47778;SDS011;33538;48.432;11.350;2024-03-07T07:44:37;39.53;;;15.57;;
47778;SDS011;33538;48.432;11.350;2024-03-07T07:47:04;39.58;;;14.88;;
47778;SDS011;33538;48.432;11.350;2024-03-07T07:49:32;41.35;;;16.25;;
47778;SDS011;33538;48.432;11.350;2024-03-07T07:51:59;45.17;;;17.02;;
47778;SDS011;33538;48.432;11.350;2024-03-07T07:54:25;56.85;;;20.63;;
47778;SDS011;33538;48.432;11.350;2024-03-07T07:56:52;44.35;;;16.38;;
47778;SDS011;33538;48.432;11.350;2024-03-07T07:59:19;42.92;;;16.20;;
47778;SDS011;33538;48.432;11.350;2024-03-07T08:01:46;45.33;;;17.60;;
47778;SDS011;33538;48.432;11.350;2024-03-07T08:04:13;37.53;;;15.68;;
47778;SDS011;33538;48.432;11.350;2024-03-07T08:06:44;45.65;;;17.02;;
47778;SDS011;33538;48.432;11.350;2024-03-07T08:09:11;36.88;;;14.02;;
47778;SDS011;33538;48.432;11.350;2024-03-07T08:11:37;45.20;;;16.55;;
47778;SDS011;33538;48.432;11.350;2024-03-07T08:14:05;47.78;;;16.83;;
47778;SDS011;33538;48.432;11.350;2024-03-07T08:16:32;39.42;;;15.35;;
47778;SDS011;33538;48.432;11.350;2024-03-07T08:18:59;42.85;;;17.00;;
47778;SDS011;33538;48.432;11.350;2024-03-07T08:21:26;46.08;;;16.85;;
47778;SDS011;33538;48.432;11.350;2024-03-07T08:23:54;47.03;;;16.33;;
47778;SDS011;33538;48.432;11.350;2024-03-07T08:26:21;43.65;;;18.40;;
47778;SDS011;33538;48.432;11.350;2024-03-07T08:28:47;36.83;;;15.55;;
47778;SDS011;33538;48.432;11.350;2024-03-07T08:31:14;46.38;;;17.50;;
47778;SDS011;33538;48.432;11.350;2024-03-07T08:33:41;38.95;;;15.60;;
47778;SDS011;33538;48.432;11.350;2024-03-07T08:36:08;39.88;;;14.90;;
47778;SDS011;33538;48.432;11.350;2024-03-07T08:38:35;39.60;;;15.13;;
47778;SDS011;33538;48.432;11.350;2024-03-07T08:41:03;42.60;;;16.50;;
47778;SDS011;33538;48.432;11.350;2024-03-07T08:43:30;42.35;;;15.60;;
47778;SDS011;33538;48.432;11.350;2024-03-07T08:45:57;40.05;;;15.88;;
47778;SDS011;33538;48.432;11.350;2024-03-07T08:48:24;39.80;;;15.27;;
47778;SDS011;33538;48.432;11.350;2024-03-07T08:50:51;45.75;;;16.27;;
47778;SDS011;33538;48.432;11.350;2024-03-07T08:53:18;42.50;;;16.80;;
47778;SDS011;33538;48.432;11.350;2024-03-07T08:55:45;46.20;;;17.70;;
47778;SDS011;33538;48.432;11.350;2024-03-07T08:58:13;44.13;;;17.23;;
47778;SDS011;33538;48.432;11.350;2024-03-07T09:00:40;36.65;;;15.00;;
47778;SDS011;33538;48.432;11.350;2024-03-07T09:03:07;47.42;;;17.35;;
47778;SDS011;33538;48.432;11.350;2024-03-07T09:05:34;43.95;;;16.15;;
47778;SDS011;33538;48.432;11.350;2024-03-07T09:08:01;38.25;;;15.32;;
47778;SDS011;33538;48.432;11.350;2024-03-07T09:10:28;45.15;;;16.73;;
47778;SDS011;33538;48.432;11.350;2024-03-07T09:12:54;37.63;;;14.68;;
47778;SDS011;33538;48.432;11.350;2024-03-07T09:15:23;42.03;;;14.60;;
47778;SDS011;33538;48.432;11.350;2024-03-07T09:17:50;37.65;;;14.35;;
47778;SDS011;33538;48.432;11.350;2024-03-07T09:20:18;39.55;;;15.50;;
47778;SDS011;33538;48.432;11.350;2024-03-07T09:22:45;40.35;;;16.95;;
47778;SDS011;33538;48.432;11.350;2024-03-07T09:25:12;40.58;;;14.00;;
47778;SDS011;33538;48.432;11.350;2024-03-07T09:27:39;39.65;;;14.65;;
47778;SDS011;33538;48.432;11.350;2024-03-07T09:30:07;39.63;;;15.48;;
47778;SDS011;33538;48.432;11.350;2024-03-07T09:32:35;37.55;;;15.40;;
47778;SDS011;33538;48.432;11.350;2024-03-07T09:35:02;42.03;;;15.85;;
47778;SDS011;33538;48.432;11.350;2024-03-07T09:37:29;34.05;;;15.00;;
47778;SDS011;33538;48.432;11.350;2024-03-07T09:39:56;38.90;;;15.05;;
47778;SDS011;33538;48.432;11.350;2024-03-07T09:42:23;35.42;;;14.68;;
47778;SDS011;33538;48.432;11.350;2024-03-07T09:44:51;41.33;;;16.63;;
47778;SDS011;33538;48.432;11.350;2024-03-07T09:47:20;35.38;;;15.07;;
47778;SDS011;33538;48.432;11.350;2024-03-07T09:49:48;33.08;;;13.70;;
47778;SDS011;33538;48.432;11.350;2024-03-07T09:52:15;35.75;;;15.02;;
47778;SDS011;33538;48.432;11.350;2024-03-07T09:54:43;35.13;;;14.00;;
47778;SDS011;33538;48.432;11.350;2024-03-07T09:57:10;30.15;;;13.20;;
47778;SDS011;33538;48.432;11.350;2024-03-07T09:59:38;33.97;;;14.32;;
47778;SDS011;33538;48.432;11.350;2024-03-07T10:02:07;38.17;;;14.68;;
47778;SDS011;33538;48.432;11.350;2024-03-07T10:04:37;32.28;;;13.63;;
47778;SDS011;33538;48.432;11.350;2024-03-07T10:07:09;39.50;;;14.65;;
47778;SDS011;33538;48.432;11.350;2024-03-07T10:09:37;33.45;;;13.23;;
47778;SDS011;33538;48.432;11.350;2024-03-07T10:12:04;39.85;;;15.65;;
47778;SDS011;33538;48.432;11.350;2024-03-07T10:14:32;43.15;;;16.33;;
47778;SDS011;33538;48.432;11.350;2024-03-07T10:16:58;40.45;;;14.82;;
47778;SDS011;33538;48.432;11.350;2024-03-07T10:19:25;31.42;;;13.35;;
47778;SDS011;33538;48.432;11.350;2024-03-07T10:21:54;33.60;;;12.77;;
47778;SDS011;33538;48.432;11.350;2024-03-07T10:24:25;40.45;;;14.98;;
47778;SDS011;33538;48.432;11.350;2024-03-07T10:26:51;37.13;;;14.48;;
47778;SDS011;33538;48.432;11.350;2024-03-07T10:29:19;42.80;;;16.02;;
47778;SDS011;33538;48.432;11.350;2024-03-07T10:31:48;35.85;;;13.75;;
47778;SDS011;33538;48.432;11.350;2024-03-07T10:34:31;35.28;;;14.00;;
47778;SDS011;33538;48.432;11.350;2024-03-07T10:37:00;44.70;;;16.05;;
47778;SDS011;33538;48.432;11.350;2024-03-07T10:39:28;46.55;;;15.65;;
47778;SDS011;33538;48.432;11.350;2024-03-07T10:41:56;37.60;;;15.95;;
47778;SDS011;33538;48.432;11.350;2024-03-07T10:44:26;48.85;;;16.35;;
47778;SDS011;33538;48.432;11.350;2024-03-07T10:46:55;32.58;;;14.25;;
47778;SDS011;33538;48.432;11.350;2024-03-07T10:49:22;40.40;;;14.10;;
47778;SDS011;33538;48.432;11.350;2024-03-07T10:51:56;33.78;;;15.35;;
47778;SDS011;33538;48.432;11.350;2024-03-07T10:54:32;35.17;;;15.10;;
47778;SDS011;33538;48.432;11.350;2024-03-07T10:57:04;34.53;;;13.20;;
47778;SDS011;33538;48.432;11.350;2024-03-07T10:59:41;33.17;;;13.73;;
47778;SDS011;33538;48.432;11.350;2024-03-07T11:02:17;36.90;;;13.13;;
47778;SDS011;33538;48.432;11.350;2024-03-07T11:04:50;29.95;;;12.82;;
47778;SDS011;33538;48.432;11.350;2024-03-07T11:07:17;32.47;;;12.52;;
47778;SDS011;33538;48.432;11.350;2024-03-07T11:09:46;33.58;;;13.55;;
47778;SDS011;33538;48.432;11.350;2024-03-07T11:12:15;38.97;;;14.70;;
47778;SDS011;33538;48.432;11.350;2024-03-07T11:14:42;39.63;;;13.88;;
47778;SDS011;33538;48.432;11.350;2024-03-07T11:17:10;31.00;;;12.18;;
47778;SDS011;33538;48.432;11.350;2024-03-07T11:19:38;44.58;;;14.80;;
47778;SDS011;33538;48.432;11.350;2024-03-07T11:22:05;36.20;;;13.35;;
47778;SDS011;33538;48.432;11.350;2024-03-07T11:24:32;35.80;;;13.57;;
47778;SDS011;33538;48.432;11.350;2024-03-07T11:27:02;34.38;;;12.50;;
47778;SDS011;33538;48.432;11.350;2024-03-07T11:29:42;29.85;;;11.52;;
47778;SDS011;33538;48.432;11.350;2024-03-07T11:32:14;37.15;;;13.13;;
47778;SDS011;33538;48.432;11.350;2024-03-07T11:34:42;34.95;;;13.57;;
47778;SDS011;33538;48.432;11.350;2024-03-07T11:37:09;34.25;;;13.13;;
47778;SDS011;33538;48.432;11.350;2024-03-07T11:39:39;30.60;;;12.27;;
47778;SDS011;33538;48.432;11.350;2024-03-07T11:42:10;25.63;;;10.88;;
47778;SDS011;33538;48.432;11.350;2024-03-07T11:44:45;28.92;;;11.07;;
47778;SDS011;33538;48.432;11.350;2024-03-07T11:47:13;31.85;;;12.57;;
47778;SDS011;33538;48.432;11.350;2024-03-07T11:49:40;32.28;;;11.85;;
47778;SDS011;33538;48.432;11.350;2024-03-07T11:52:06;35.45;;;13.77;;
47778;SDS011;33538;48.432;11.350;2024-03-07T11:54:33;30.98;;;12.52;;
47778;SDS011;33538;48.432;11.350;2024-03-07T11:57:00;29.30;;;11.63;;
47778;SDS011;33538;48.432;11.350;2024-03-07T11:59:28;24.38;;;9.63;;
47778;SDS011;33538;48.432;11.350;2024-03-07T12:01:55;27.52;;;11.55;;
47778;SDS011;33538;48.432;11.350;2024-03-07T12:04:22;28.80;;;12.65;;
47778;SDS011;33538;48.432;11.350;2024-03-07T12:06:52;27.75;;;11.48;;
47778;SDS011;33538;48.432;11.350;2024-03-07T12:09:19;29.23;;;10.57;;
47778;SDS011;33538;48.432;11.350;2024-03-07T12:11:45;28.67;;;12.10;;
47778;SDS011;33538;48.432;11.350;2024-03-07T12:14:12;36.25;;;12.38;;
47778;SDS011;33538;48.432;11.350;2024-03-07T12:16:40;21.85;;;10.07;;
47778;SDS011;33538;48.432;11.350;2024-03-07T12:19:08;27.83;;;10.70;;
47778;SDS011;33538;48.432;11.350;2024-03-07T12:21:36;29.52;;;11.20;;
47778;SDS011;33538;48.432;11.350;2024-03-07T12:24:10;30.83;;;12.00;;
47778;SDS011;33538;48.432;11.350;2024-03-07T12:26:37;28.25;;;11.23;;
47778;SDS011;33538;48.432;11.350;2024-03-07T12:29:07;31.92;;;10.73;;
47778;SDS011;33538;48.432;11.350;2024-03-07T12:31:34;33.40;;;11.48;;
47778;SDS011;33538;48.432;11.350;2024-03-07T12:34:02;29.98;;;12.60;;
47778;SDS011;33538;48.432;11.350;2024-03-07T12:36:29;29.55;;;11.43;;
47778;SDS011;33538;48.432;11.350;2024-03-07T12:38:56;30.88;;;11.32;;
47778;SDS011;33538;48.432;11.350;2024-03-07T12:41:23;33.67;;;13.50;;
47778;SDS011;33538;48.432;11.350;2024-03-07T12:43:50;33.15;;;13.05;;
47778;SDS011;33538;48.432;11.350;2024-03-07T12:46:17;31.25;;;12.20;;
47778;SDS011;33538;48.432;11.350;2024-03-07T12:48:44;32.42;;;12.90;;
47778;SDS011;33538;48.432;11.350;2024-03-07T12:51:14;26.23;;;10.95;;
47778;SDS011;33538;48.432;11.350;2024-03-07T12:53:41;27.60;;;10.73;;
47778;SDS011;33538;48.432;11.350;2024-03-07T12:56:08;32.28;;;12.38;;
47778;SDS011;33538;48.432;11.350;2024-03-07T12:58:35;30.63;;;12.93;;
47778;SDS011;33538;48.432;11.350;2024-03-07T13:01:02;25.50;;;11.40;;
47778;SDS011;33538;48.432;11.350;2024-03-07T13:03:29;30.67;;;11.70;;
47778;SDS011;33538;48.432;11.350;2024-03-07T13:05:56;27.00;;;10.15;;
47778;SDS011;33538;48.432;11.350;2024-03-07T13:08:25;26.77;;;11.15;;
47778;SDS011;33538;48.432;11.350;2024-03-07T13:10:51;22.63;;;10.50;;
47778;SDS011;33538;48.432;11.350;2024-03-07T13:13:18;25.50;;;10.57;;
47778;SDS011;33538;48.432;11.350;2024-03-07T13:15:45;26.48;;;11.07;;
47778;SDS011;33538;48.432;11.350;2024-03-07T13:18:12;27.85;;;10.43;;
47778;SDS011;33538;48.432;11.350;2024-03-07T13:20:39;30.58;;;11.63;;
47778;SDS011;33538;48.432;11.350;2024-03-07T13:23:06;27.50;;;10.57;;
47778;SDS011;33538;48.432;11.350;2024-03-07T13:25:34;20.45;;;8.68;;
47778;SDS011;33538;48.432;11.350;2024-03-07T13:28:01;29.40;;;12.85;;
47778;SDS011;33538;48.432;11.350;2024-03-07T13:30:30;22.45;;;10.05;;
47778;SDS011;33538;48.432;11.350;2024-03-07T13:32:58;28.10;;;11.05;;
47778;SDS011;33538;48.432;11.350;2024-03-07T13:35:26;24.38;;;10.45;;
47778;SDS011;33538;48.432;11.350;2024-03-07T13:37:52;33.85;;;11.70;;
47778;SDS011;33538;48.432;11.350;2024-03-07T13:40:20;23.35;;;10.40;;
47778;SDS011;33538;48.432;11.350;2024-03-07T13:42:48;24.23;;;10.00;;
47778;SDS011;33538;48.432;11.350;2024-03-07T13:45:15;34.22;;;10.75;;
47778;SDS011;33538;48.432;11.350;2024-03-07T13:47:42;24.33;;;9.73;;
47778;SDS011;33538;48.432;11.350;2024-03-07T13:50:09;25.27;;;10.65;;
47778;SDS011;33538;48.432;11.350;2024-03-07T13:52:41;22.27;;;9.02;;
47778;SDS011;33538;48.432;11.350;2024-03-07T13:55:08;26.60;;;9.38;;
47778;SDS011;33538;48.432;11.350;2024-03-07T13:57:36;27.48;;;11.25;;
47778;SDS011;33538;48.432;11.350;2024-03-07T14:00:23;27.38;;;10.48;;
47778;SDS011;33538;48.432;11.350;2024-03-07T14:03:04;27.48;;;12.07;;
47778;SDS011;33538;48.432;11.350;2024-03-07T14:05:55;23.10;;;8.95;;
47778;SDS011;33538;48.432;11.350;2024-03-07T14:14:42;28.17;;;10.55;;
47778;SDS011;33538;48.432;11.350;2024-03-07T14:17:49;24.30;;;8.95;;
47778;SDS011;33538;48.432;11.350;2024-03-07T14:20:54;25.75;;;10.77;;